Time;durP1;ratioP1;P1;durP2;ratioP2;P2;SDS_P1;SDS_P2;PMS_P1;PMS_P2;Temp;Humidity;BMP_temperature;BMP_pressure;BME280_temperature;BME280_humidity;BME280_pressure;Samples;Min_cycle;Max_cycle;Signal;HPM_P1;HPM_P2
2023/01/21 07:35:47;;;;;;;4.17;2.67;;;0.30;99.90;1.70;102686.00;;;;5086475;28;20345;-68
2023/01/21 07:38:13;;;;;;;4.33;4.13;;;0.40;99.90;1.80;102685.00;;;;5094046;28;20193;-68
2023/01/21 07:40:39;;;;;;;2.80;2.60;;;0.40;99.90;2.20;102692.00;;;;5078604;28;20280;-68
2023/01/21 07:43:05;;;;;;;2.90;2.80;;;0.60;99.90;2.00;102676.00;;;;5074230;28;20189;-68
2023/01/21 07:45:31;;;;;;;2.77;2.53;;;0.50;99.90;1.90;102680.00;;;;5075983;28;20686;-68
2023/01/21 07:47:59;;;;;;;3.40;2.03;;;0.40;99.90;1.40;102644.00;;;;5067133;28;20197;-68
2023/01/21 07:50:26;;;;;;;1.00;1.00;;;0.30;99.90;1.30;102688.00;;;;5070036;28;20635;-68
2023/01/21 07:52:58;;;;;;;1.97;1.80;;;0.30;99.90;1.50;102678.00;;;;5066659;28;20559;-69
2023/01/21 07:55:28;;;;;;;2.60;1.27;;;0.20;99.90;1.30;102697.00;;;;5089549;28;20276;-68
2023/01/21 07:57:58;;;;;;;2.30;1.07;;;0.20;99.90;1.50;102665.00;;;;5048049;28;20217;-68
2023/01/21 08:00:28;;;;;;;0.87;0.87;;;0.20;99.90;1.40;102715.00;;;;5065524;28;20296;-68
2023/01/21 08:02:55;;;;;;;5.17;4.73;;;0.20;99.90;2.70;102709.00;;;;5046631;28;20198;-68
2023/01/21 08:05:22;;;;;;;1.00;1.00;;;0.50;99.90;2.20;102738.00;;;;5057430;28;20229;-68
2023/01/21 08:07:49;;;;;;;1.17;1.17;;;0.60;99.90;1.50;102736.00;;;;5057842;28;20197;-68
2023/01/21 08:10:16;;;;;;;1.27;1.27;;;0.40;99.90;2.00;102732.00;;;;5068018;28;20224;-68
2023/01/21 08:12:45;;;;;;;2.40;2.30;;;0.40;99.90;1.90;102743.00;;;;5073096;28;20219;-68
2023/01/21 08:15:13;;;;;;;0.70;0.70;;;0.60;99.90;2.20;102747.00;;;;5086267;28;20199;-68
2023/01/21 08:17:50;;;;;;;2.27;2.17;;;0.50;99.90;1.90;102749.00;;;;5059179;28;20189;-69
2023/01/21 08:20:19;;;;;;;1.43;1.43;;;0.50;99.90;2.30;102755.00;;;;5071030;28;20194;-69
2023/01/21 08:22:45;;;;;;;2.63;2.50;;;0.60;99.90;2.30;102754.00;;;;5073524;28;20266;-69
2023/01/21 08:25:11;;;;;;;2.33;2.13;;;0.70;99.90;2.20;102763.00;;;;5069127;28;20641;-69
2023/01/21 08:27:48;;;;;;;2.43;2.23;;;0.80;99.90;2.20;102758.00;;;;5070922;28;20186;-68
2023/01/21 08:30:25;;;;;;;1.73;1.73;;;0.70;99.90;2.60;102758.00;;;;5061854;28;20193;-68
2023/01/21 08:32:54;;;;;;;2.30;2.20;;;0.70;99.90;2.30;102752.00;;;;5060408;28;20220;-68
2023/01/21 08:35:20;;;;;;;2.97;2.80;;;0.80;99.90;2.80;102769.00;;;;5059689;28;20205;-69
2023/01/21 08:37:46;;;;;;;2.87;2.63;;;0.80;99.90;3.00;102774.00;;;;5080165;28;20216;-69
2023/01/21 08:40:40;;;;;;;0.90;0.90;;;1.10;99.90;3.00;102781.00;;;;5080968;28;20200;-68
2023/01/21 08:43:07;;;;;;;5.93;5.73;;;1.10;99.90;3.10;102793.00;;;;5060187;28;20284;-68
2023/01/21 08:45:33;;;;;;;3.40;3.23;;;1.30;99.90;2.50;102749.00;;;;5073376;28;20189;-68
2023/01/21 08:48:02;;;;;;;1.00;1.00;;;1.10;99.90;3.10;102793.00;;;;5064164;28;20344;-69
2023/01/21 08:50:28;;;;;;;2.00;2.00;;;1.20;99.90;3.40;102768.00;;;;5057708;28;20197;-68
2023/01/21 08:53:09;;;;;;;3.90;3.60;;;1.40;99.90;2.90;102807.00;;;;5075552;28;20213;-68
2023/01/21 08:55:41;;;;;;;1.37;1.37;;;1.20;99.90;3.50;102802.00;;;;5043323;28;20193;-69
2023/01/21 08:58:30;;;;;;;2.53;2.40;;;1.30;99.90;3.60;102770.00;;;;5082403;28;20529;-68
2023/01/21 09:01:16;;;;;;;5.83;5.37;;;1.40;99.90;3.40;102785.00;;;;5078087;28;20293;-68
2023/01/21 09:03:50;;;;;;;9.30;6.67;;;1.60;99.90;2.50;102823.00;;;;5088384;28;20192;-69
2023/01/21 09:06:18;;;;;;;2.13;2.03;;;1.40;99.90;2.70;102815.00;;;;5063388;28;20649;-73
2023/01/21 09:08:47;;;;;;;2.47;2.37;;;1.40;99.90;2.40;102808.00;;;;5064265;28;20196;-73
2023/01/21 09:11:16;;;;;;;2.17;2.00;;;1.20;99.90;3.40;102806.00;;;;5043185;28;20537;-72
2023/01/21 09:13:47;;;;;;;1.13;1.13;;;1.40;99.90;2.90;102812.00;;;;5072377;28;20217;-72
2023/01/21 09:16:23;;;;;;;2.50;2.40;;;1.50;99.90;2.90;102785.00;;;;5039458;28;20193;-73
2023/01/21 09:19:40;;;;;;;1.40;1.30;;;1.60;99.90;3.40;102840.00;;;;5037392;28;20197;-73
2023/01/21 09:22:08;;;;;;;11.27;8.30;;;1.80;99.90;2.70;102798.00;;;;5074481;28;20204;-73
2023/01/21 09:24:39;;;;;;;2.07;1.97;;;1.70;99.90;2.70;102787.00;;;;5076065;28;20189;-73
2023/01/21 09:27:09;;;;;;;3.03;2.67;;;1.60;99.90;3.20;102818.00;;;;5049377;28;20267;-73
2023/01/21 09:29:35;;;;;;;6.63;4.53;;;1.70;99.90;2.70;102832.00;;;;5048812;28;20213;-74
2023/01/21 09:32:08;;;;;;;0.83;0.83;;;1.70;99.90;3.30;102781.00;;;;5043476;28;20214;-73
2023/01/21 09:34:34;;;;;;;9.23;5.73;;;1.70;99.90;2.80;102812.00;;;;5064247;28;20592;-73
2023/01/21 09:37:06;;;;;;;4.13;3.77;;;1.80;99.90;3.60;102818.00;;;;5044860;28;20189;-76
2023/01/21 09:39:32;;;;;;;2.83;2.60;;;1.90;99.90;2.80;102813.00;;;;5063687;28;20189;-71
2023/01/21 09:42:17;;;;;;;3.67;3.53;;;1.80;99.90;3.70;102818.00;;;;5070085;28;20197;-72
2023/01/21 09:44:48;;;;;;;5.57;5.10;;;2.00;99.90;3.20;102831.00;;;;5059924;28;20197;-69
2023/01/21 09:47:44;;;;;;;12.10;7.23;;;2.10;99.90;3.20;102829.00;;;;5059662;28;20208;-73
2023/01/21 09:50:23;;;;;;;1.07;1.07;;;2.10;99.90;4.40;102834.00;;;;5053359;28;20202;-73
2023/01/21 09:53:03;;;;;;;3.53;3.33;;;2.40;99.90;3.80;102855.00;;;;5071283;28;20220;-73
2023/01/21 09:56:24;;;;;;;14.47;9.50;;;2.50;99.90;3.80;102831.00;;;;5064194;28;20647;-72
2023/01/21 09:59:15;;;;;;;1.83;1.73;;;2.60;99.90;4.50;102859.00;;;;5067428;28;20205;-72
2023/01/21 10:01:47;;;;;;;3.03;2.83;;;2.80;99.90;5.00;102849.00;;;;5056337;28;20194;-73
2023/01/21 10:04:30;;;;;;;2.70;2.50;;;3.30;99.90;4.80;102847.00;;;;5035510;28;20194;-72
2023/01/21 10:07:13;;;;;;;0.67;0.67;;;3.20;99.90;5.10;102900.00;;;;5055040;28;20208;-70
2023/01/21 10:09:56;;;;;;;2.13;1.93;;;3.30;99.90;4.40;102898.00;;;;5063789;28;20280;-73
2023/01/21 10:12:58;;;;;;;7.50;5.20;;;3.30;99.90;4.30;102905.00;;;;5065910;28;20204;-73
2023/01/21 10:16:10;;;;;;;1.23;1.13;;;3.30;99.90;5.80;102914.00;;;;5056879;28;20193;-73
2023/01/21 10:18:43;;;;;;;5.03;2.97;;;3.60;99.90;6.50;102921.00;;;;5045862;28;20275;-73
2023/01/21 10:33:31;;;;;;;2.17;1.40;;;3.20;99.90;5.80;102874.00;;;;5057489;28;20974;-73
2023/01/21 10:36:09;;;;;;;4.73;3.50;;;3.80;99.90;4.80;102919.00;;;;5050204;28;20186;-73
2023/01/21 10:39:17;;;;;;;6.57;4.93;;;4.00;99.90;6.10;102912.00;;;;5049204;28;20194;-73
2023/01/21 10:42:04;;;;;;;4.47;1.97;;;4.00;99.90;5.30;102921.00;;;;5029375;28;20681;-73
2023/01/21 10:44:50;;;;;;;6.33;4.93;;;3.90;99.90;6.50;102943.00;;;;5037301;28;20183;-74
2023/01/21 10:48:12;;;;;;;2.73;1.97;;;4.30;99.90;5.20;102952.00;;;;5048928;28;20197;-73
2023/01/21 10:50:55;;;;;;;1.03;0.90;;;4.30;99.90;6.00;102933.00;;;;5011183;28;20192;-73
2023/01/21 10:53:48;;;;;;;4.50;4.10;;;4.10;99.90;7.60;102968.00;;;;4990867;28;20618;-73
2023/01/21 10:57:22;;;;;;;8.50;5.70;;;4.80;99.90;8.00;102977.00;;;;5043327;28;20185;-73
2023/01/21 10:59:58;;;;;;;0.60;0.60;;;5.40;99.90;7.10;102966.00;;;;5037679;28;20666;-73
2023/01/21 11:02:31;;;;;;;5.13;1.33;;;5.20;99.90;7.40;102942.00;;;;5060626;28;20636;-73
2023/01/21 11:05:18;;;;;;;4.63;4.23;;;5.20;99.90;5.80;102946.00;;;;5049623;28;20191;-73
2023/01/21 11:08:05;;;;;;;4.10;2.23;;;4.80;99.90;5.70;102958.00;;;;5055246;28;20794;-73
2023/01/21 11:10:54;;;;;;;11.23;6.03;;;4.60;99.90;5.60;102973.00;;;;5048276;28;20561;-74
2023/01/21 11:13:40;;;;;;;5.20;2.97;;;4.40;99.90;4.80;102951.00;;;;5023411;28;20208;-72
2023/01/21 11:16:18;;;;;;;6.10;3.07;;;4.00;99.90;5.40;102962.00;;;;5036384;28;20198;-73
2023/01/21 11:18:49;;;;;;;3.40;2.93;;;4.10;99.90;5.50;102970.00;;;;5011877;28;20188;-73
2023/01/21 11:21:30;;;;;;;5.83;5.03;;;4.20;99.90;6.70;102982.00;;;;5011916;28;20577;-72
2023/01/21 11:23:59;;;;;;;10.83;6.90;;;4.50;99.90;5.40;102976.00;;;;5025968;28;20180;-73
2023/01/21 11:26:35;;;;;;;7.90;3.70;;;4.40;99.90;5.60;102980.00;;;;5044091;28;20725;-73
2023/01/21 11:29:39;;;;;;;3.33;3.07;;;4.40;99.90;5.70;102981.00;;;;5017988;28;20183;-73
2023/01/21 11:32:44;;;;;;;16.67;8.13;;;4.60;99.90;5.10;102956.00;;;;5011371;28;20215;-74
2023/01/21 11:35:22;;;;;;;2.97;2.33;;;4.20;99.90;5.80;102968.00;;;;5020698;28;20542;-73
2023/01/21 11:37:48;;;;;;;5.70;5.03;;;4.40;99.90;6.40;102989.00;;;;5021535;28;20223;-73
2023/01/21 11:40:23;;;;;;;1.43;1.33;;;4.60;99.90;7.10;102994.00;;;;5034423;28;20662;-73
2023/01/21 11:42:56;;;;;;;2.20;1.93;;;5.10;99.90;6.30;102970.00;;;;5024462;28;20555;-72
2023/01/21 11:45:35;;;;;;;14.80;8.67;;;4.90;99.90;5.60;102980.00;;;;5013618;28;20245;-73
2023/01/21 11:48:20;;;;;;;9.27;6.07;;;4.60;99.90;5.40;102901.00;;;;5014371;28;20708;-72
2023/01/21 11:51:05;;;;;;;11.17;6.03;;;4.20;99.90;5.50;102974.00;;;;5020312;28;20195;-72
2023/01/21 11:53:34;;;;;;;9.90;7.43;;;4.30;99.90;5.00;102980.00;;;;5008898;28;20186;-72
2023/01/21 11:56:10;;;;;;;13.43;9.43;;;4.20;99.90;4.80;102967.00;;;;5018614;28;20183;-72
2023/01/21 11:58:40;;;;;;;10.07;8.27;;;4.10;99.90;5.10;102961.00;;;;5013629;28;20232;-72
2023/01/21 12:01:20;;;;;;;10.30;7.77;;;4.10;99.90;5.20;102965.00;;;;5014489;28;20660;-72
2023/01/21 12:03:59;;;;;;;7.30;5.47;;;4.10;99.90;5.30;102969.00;;;;5008648;28;20219;-72
2023/01/21 12:06:47;;;;;;;5.47;4.97;;;4.20;99.90;5.50;102933.00;;;;5013985;28;20260;-72
2023/01/21 12:09:50;;;;;;;15.93;9.67;;;4.20;99.90;4.70;102964.00;;;;5007933;28;20176;-72
2023/01/21 12:12:33;;;;;;;5.53;5.00;;;4.00;99.90;5.10;102929.00;;;;5005404;28;20199;-72
2023/01/21 12:15:22;;;;;;;5.00;2.80;;;3.90;99.90;5.60;102963.00;;;;5001146;28;20184;-72
2023/01/21 12:18:06;;;;;;;4.67;4.33;;;4.10;99.90;6.10;102939.00;;;;5013515;28;20597;-72
2023/01/21 12:20:49;;;;;;;5.43;4.70;;;4.50;99.90;5.60;102936.00;;;;5020857;28;20233;-72
2023/01/21 12:24:06;;;;;;;12.03;6.77;;;4.50;99.90;5.30;102975.00;;;;5024069;28;20235;-72
2023/01/21 12:26:48;;;;;;;3.87;2.23;;;4.40;99.90;5.50;102966.00;;;;4957139;28;20554;-72
2023/01/21 12:29:21;;;;;;;7.47;4.53;;;4.20;99.90;5.40;102949.00;;;;5019317;28;20201;-72
2023/01/21 12:32:11;;;;;;;13.23;6.77;;;4.10;99.90;4.50;102963.00;;;;5003011;28;20215;-72
2023/01/21 12:34:58;;;;;;;14.00;5.87;;;4.00;99.90;4.30;102909.00;;;;5013623;28;20190;-72
2023/01/21 12:37:35;;;;;;;5.37;4.50;;;3.70;99.90;5.50;102934.00;;;;5014004;28;20655;-72
2023/01/21 12:40:20;;;;;;;5.90;4.00;;;3.80;99.90;5.30;102958.00;;;;5004316;28;20222;-72
2023/01/21 12:42:53;;;;;;;14.17;9.50;;;3.90;99.90;3.80;102933.00;;;;5028747;28;20191;-72
2023/01/21 12:45:34;;;;;;;11.50;6.37;;;3.40;99.90;4.50;102946.00;;;;5006486;28;20212;-72
2023/01/21 12:48:35;;;;;;;7.07;6.43;;;3.40;99.90;4.40;102947.00;;;;5041332;28;20198;-74
2023/01/21 12:51:24;;;;;;;5.67;3.43;;;3.40;99.90;4.70;102944.00;;;;5003100;28;20281;-72
2023/01/21 12:54:23;;;;;;;2.73;2.60;;;3.40;99.90;5.10;102946.00;;;;5022813;28;20325;-72
2023/01/21 12:57:16;;;;;;;7.10;4.20;;;3.50;99.90;5.50;102908.00;;;;5009574;28;20233;-72
2023/01/21 12:59:49;;;;;;;4.50;3.10;;;3.80;99.90;6.00;102958.00;;;;5002118;28;20191;-73
2023/01/21 13:02:36;;;;;;;3.03;2.83;;;4.10;99.90;5.80;102973.00;;;;5013799;28;20326;-73
2023/01/21 13:06:00;;;;;;;4.87;3.87;;;4.30;99.90;5.60;102972.00;;;;5015569;28;20209;-73
2023/01/21 13:08:53;;;;;;;8.00;4.77;;;4.40;99.90;4.90;102974.00;;;;5011772;28;20200;-73
2023/01/21 13:11:49;;;;;;;10.10;5.77;;;4.00;99.90;5.10;102979.00;;;;5011852;28;20193;-73
2023/01/21 13:14:25;;;;;;;4.73;2.33;;;3.90;99.90;5.10;102986.00;;;;4993415;28;20204;-73
2023/01/21 13:17:14;;;;;;;5.13;4.83;;;3.70;99.90;4.20;102975.00;;;;5014739;28;20179;-73
2023/01/21 13:19:58;;;;;;;14.57;9.97;;;3.40;99.90;3.50;102905.00;;;;5041171;28;20196;-73
2023/01/21 13:22:41;;;;;;;9.97;7.10;;;2.80;99.90;4.10;102967.00;;;;5012960;28;20274;-73
2023/01/21 13:25:43;;;;;;;19.53;11.13;;;2.90;99.90;4.00;102979.00;;;;5022432;28;20190;-73
2023/01/21 13:28:53;;;;;;;15.50;7.80;;;2.80;99.90;3.80;102974.00;;;;5003502;28;20349;-73
2023/01/21 13:36:06;;;;;;;6.93;6.20;;;2.50;99.90;4.50;102970.00;;;;5009832;28;20229;-73
2023/01/21 13:39:36;;;;;;;6.13;4.87;;;2.60;99.90;4.90;102975.00;;;;5008030;28;20651;-73
2023/01/21 13:42:31;;;;;;;6.57;5.80;;;2.80;99.90;4.80;102975.00;;;;4995561;28;20203;-74
2023/01/21 13:45:04;;;;;;;2.53;2.00;;;2.90;99.90;5.50;102963.00;;;;5007583;28;20659;-74
2023/01/21 13:47:40;;;;;;;3.13;2.93;;;3.10;99.90;4.80;102947.00;;;;5014410;28;20189;-74
2023/01/21 13:51:01;;;;;;;3.90;3.60;;;3.00;99.90;5.40;102986.00;;;;5013895;28;20186;-74
2023/01/21 13:54:02;;;;;;;7.47;6.17;;;3.10;99.90;4.30;102952.00;;;;4993620;28;20219;-74
2023/01/21 13:56:46;;;;;;;2.73;1.90;;;2.80;99.90;4.20;102973.00;;;;5014220;28;20199;-74
2023/01/21 13:59:34;;;;;;;2.73;2.63;;;2.50;99.90;5.10;102974.00;;;;5023559;28;20210;-74
2023/01/21 14:02:29;;;;;;;3.50;2.93;;;2.80;99.90;6.10;102994.00;;;;5009109;28;20555;-74
2023/01/21 14:05:49;;;;;;;2.03;1.40;;;3.30;99.90;5.30;102998.00;;;;5001845;28;20659;-74
2023/01/21 14:11:33;;;;;;;3.83;3.10;;;3.10;99.90;5.70;103008.00;;;;5018416;28;20274;-74
2023/01/21 14:14:37;;;;;;;3.57;2.67;;;3.50;99.90;5.00;102996.00;;;;5005917;28;20275;-73
2023/01/21 14:17:41;;;;;;;8.83;7.93;;;3.30;99.90;4.10;102998.00;;;;5013442;28;20190;-74
2023/01/21 14:20:36;;;;;;;1.60;1.60;;;3.10;99.90;5.00;103002.00;;;;5030299;28;20199;-74
2023/01/21 14:23:55;;;;;;;1.03;0.97;;;3.00;99.90;5.90;103014.00;;;;4991686;28;20191;-74
2023/01/21 14:26:54;;;;;;;2.47;1.30;;;3.20;99.90;5.60;103019.00;;;;5007421;28;20740;-74
2023/01/21 14:29:58;;;;;;;9.37;6.40;;;3.30;99.90;6.00;103020.00;;;;5004028;28;20199;-74
2023/01/21 14:33:00;;;;;;;2.20;2.10;;;3.60;99.90;5.90;103010.00;;;;5008552;28;20254;-74
2023/01/21 14:35:36;;;;;;;0.30;0.30;;;3.30;99.90;5.10;103014.00;;;;5009626;28;20277;-74
2023/01/21 14:38:59;;;;;;;7.73;4.53;;;3.20;99.90;5.30;103016.00;;;;5011962;28;20245;-73
2023/01/21 14:42:10;;;;;;;13.40;3.47;;;3.20;99.90;5.20;103018.00;;;;5012911;28;20187;-74
2023/01/21 14:44:47;;;;;;;10.77;6.80;;;3.20;99.90;4.60;103017.00;;;;5011388;28;20659;-73
2023/01/21 14:47:42;;;;;;;13.57;4.90;;;3.10;99.90;4.70;102975.00;;;;5013020;28;20650;-73
2023/01/21 14:50:45;;;;;;;5.93;2.07;;;2.90;99.90;5.00;103021.00;;;;5011560;28;20183;-71
2023/01/21 14:53:28;;;;;;;6.93;2.23;;;3.00;99.90;5.10;102979.00;;;;4990649;28;20203;-73
2023/01/21 14:56:21;;;;;;;12.33;6.03;;;3.00;99.90;5.10;103022.00;;;;5006221;28;20196;-72
2023/01/21 14:59:34;;;;;;;0.60;0.60;;;3.00;99.90;4.80;103010.00;;;;5008450;28;20275;-73
2023/01/21 15:02:17;;;;;;;1.27;1.27;;;2.80;99.90;4.90;103020.00;;;;5008280;28;20246;-73
2023/01/21 15:05:14;;;;;;;2.63;2.50;;;2.80;99.90;4.50;103018.00;;;;5011310;28;20191;-73
2023/01/21 15:07:44;;;;;;;0.80;0.80;;;2.70;99.90;5.30;103028.00;;;;5006559;28;20212;-73
2023/01/21 15:10:17;;;;;;;1.90;1.80;;;2.90;99.90;5.20;103025.00;;;;5011696;28;20275;-68
2023/01/21 15:12:54;;;;;;;4.27;3.90;;;3.00;99.90;5.60;103034.00;;;;5000672;28;20211;-72
2023/01/21 15:15:29;;;;;;;6.43;3.07;;;3.10;99.90;4.40;103030.00;;;;5014790;28;20193;-72
2023/01/21 15:18:24;;;;;;;1.70;1.60;;;2.80;99.90;4.50;103021.00;;;;5015433;28;20190;-72
2023/01/21 15:20:57;;;;;;;5.20;3.37;;;2.70;99.90;5.20;103041.00;;;;5002359;28;20266;-71
2023/01/21 15:23:29;;;;;;;0.70;0.70;;;2.80;99.90;5.90;103050.00;;;;5016693;28;20662;-71
2023/01/21 15:26:10;;;;;;;0.93;0.93;;;3.00;99.90;5.90;103062.00;;;;5019932;28;20195;-71
2023/01/21 15:28:44;;;;;;;0.60;0.60;;;3.30;99.90;4.50;103016.00;;;;5016229;28;20179;-71
2023/01/21 15:31:55;;;;;;;3.30;3.10;;;3.00;99.90;5.20;103047.00;;;;5016233;28;20183;-71
2023/01/21 15:34:48;;;;;;;2.40;1.17;;;2.70;99.90;5.30;103056.00;;;;5011156;28;20277;-71
2023/01/21 15:38:08;;;;;;;0.30;0.30;;;2.80;99.90;5.70;103070.00;;;;5014850;28;20189;-71
2023/01/21 15:41:32;;;;;;;0.30;0.30;;;3.00;99.90;6.00;103087.00;;;;4999581;28;20942;-71
2023/01/21 15:44:41;;;;;;;0.30;0.30;;;2.90;99.90;5.80;103083.00;;;;4958055;28;20197;-71
2023/01/21 15:47:49;;;;;;;0.30;0.30;;;3.00;99.90;6.10;103082.00;;;;5022700;28;20661;-72
2023/01/21 15:50:43;;;;;;;1.23;1.23;;;3.00;99.90;5.70;103084.00;;;;5003642;28;20241;-71
2023/01/21 15:53:41;;;;;;;0.40;0.40;;;3.00;99.90;5.40;103081.00;;;;5017996;28;20218;-71
2023/01/21 15:56:18;;;;;;;1.27;1.23;;;2.90;99.90;5.10;103077.00;;;;4998260;28;20212;-71
2023/01/21 15:59:20;;;;;;;1.53;1.53;;;2.80;99.90;5.50;103079.00;;;;5015790;28;20191;-71
2023/01/21 16:02:20;;;;;;;1.00;0.93;;;2.70;99.90;5.00;103056.00;;;;5017971;28;20201;-71
2023/01/21 16:05:04;;;;;;;0.50;0.50;;;2.90;99.90;5.40;103081.00;;;;5021824;28;20535;-71
2023/01/21 16:08:03;;;;;;;0.30;0.30;;;2.80;99.90;5.60;103087.00;;;;5014221;28;20186;-71
2023/01/21 16:11:07;;;;;;;0.50;0.50;;;2.80;99.90;6.10;103100.00;;;;5015381;28;20190;-71
2023/01/21 16:14:02;;;;;;;0.40;0.40;;;3.20;99.90;5.70;103082.00;;;;5013959;28;20207;-71
2023/01/21 16:17:31;;;;;;;0.50;0.50;;;3.10;99.90;5.90;103083.00;;;;5012808;28;20218;-71
2023/01/21 16:20:00;;;;;;;2.30;1.77;;;3.30;99.90;6.00;103046.00;;;;4989938;28;20199;-71
2023/01/21 16:22:42;;;;;;;1.57;1.57;;;3.40;99.90;5.10;103047.00;;;;4992931;28;20203;-71
2023/01/21 16:25:27;;;;;;;2.03;1.93;;;3.20;99.90;5.80;103082.00;;;;5009059;28;20199;-71
2023/01/21 16:28:00;;;;;;;5.83;2.83;;;3.20;99.90;5.50;103083.00;;;;5002859;28;20261;-71
2023/01/21 16:31:12;;;;;;;5.83;2.10;;;3.20;99.90;5.50;103076.00;;;;5013653;28;20223;-71
2023/01/21 16:34:02;;;;;;;12.33;2.10;;;3.10;99.90;6.10;103092.00;;;;4997126;28;20214;-71
2023/01/21 16:37:11;;;;;;;1.97;1.93;;;3.30;99.90;5.90;103055.00;;;;5015162;28;20191;-71
2023/01/21 16:40:48;;;;;;;2.53;2.43;;;3.30;99.90;5.40;103092.00;;;;5011942;28;20565;-71
2023/01/21 16:43:50;;;;;;;0.97;0.97;;;3.30;99.90;4.10;103075.00;;;;5014865;28;20209;-73
2023/01/21 16:46:21;;;;;;;0.50;0.50;;;2.70;99.90;5.00;103050.00;;;;5019714;28;20178;-72
2023/01/21 16:49:34;;;;;;;0.40;0.40;;;2.70;99.90;5.40;103085.00;;;;5015353;28;20213;-72
2023/01/21 16:52:03;;;;;;;2.57;2.13;;;2.90;99.90;5.10;103080.00;;;;4992340;28;20214;-72
2023/01/21 16:54:51;;;;;;;1.20;1.17;;;2.90;99.90;4.70;103074.00;;;;4997297;28;20554;-72
2023/01/21 16:57:18;;;;;;;0.60;0.60;;;3.00;99.90;5.70;103095.00;;;;5018431;28;20218;-72
2023/01/21 16:59:47;;;;;;;0.40;0.40;;;3.00;99.90;5.90;103099.00;;;;5015499;28;20249;-72
2023/01/21 17:02:58;;;;;;;3.00;2.70;;;3.30;99.90;5.30;103091.00;;;;5013262;28;20187;-72
2023/01/21 17:05:42;;;;;;;1.30;1.30;;;3.20;99.90;4.80;103100.00;;;;5012853;28;20199;-71
2023/01/21 17:08:14;;;;;;;1.10;1.10;;;3.00;99.90;4.90;103090.00;;;;5010776;28;20241;-72
2023/01/21 17:10:59;;;;;;;0.70;0.70;;;2.90;99.90;4.60;103100.00;;;;5013090;28;20183;-71
2023/01/21 17:13:33;;;;;;;0.73;0.70;;;2.90;99.90;4.90;103090.00;;;;4996136;28;20207;-70
2023/01/21 17:16:01;;;;;;;3.63;3.33;;;2.80;99.90;5.40;103100.00;;;;5005600;28;20187;-70
2023/01/21 17:18:57;;;;;;;0.77;0.77;;;2.90;99.90;5.30;103107.00;;;;5013291;28;20245;-70
2023/01/21 17:22:00;;;;;;;0.40;0.40;;;3.00;99.90;5.50;103103.00;;;;5005440;28;20203;-70
2023/01/21 17:24:35;;;;;;;1.90;1.80;;;2.90;99.90;4.90;103081.00;;;;5011683;28;20203;-70
2023/01/21 17:27:22;;;;;;;0.50;0.50;;;2.70;99.90;4.50;103096.00;;;;5012697;28;20187;-70
2023/01/21 17:30:32;;;;;;;9.63;9.10;;;2.50;99.90;4.70;103068.00;;;;5005020;28;20191;-70
2023/01/21 17:33:04;;;;;;;2.37;2.20;;;2.50;99.90;4.90;103123.00;;;;5012634;28;20277;-70
2023/01/21 17:36:10;;;;;;;0.97;0.97;;;2.50;99.90;4.70;103117.00;;;;5002980;28;20198;-70
2023/01/21 17:38:56;;;;;;;1.23;1.10;;;2.50;99.90;4.80;103102.00;;;;5007694;28;20596;-70
2023/01/21 17:41:45;;;;;;;1.40;0.90;;;2.40;99.90;5.80;103127.00;;;;5016006;28;20190;-70
2023/01/21 17:44:43;;;;;;;0.40;0.40;;;2.80;99.90;5.70;103117.00;;;;4993539;28;20191;-70
2023/01/21 17:47:41;;;;;;;0.40;0.40;;;3.10;99.90;4.80;103120.00;;;;4999466;28;20195;-71
2023/01/21 17:50:31;;;;;;;11.70;7.97;;;2.80;99.90;5.70;103090.00;;;;4995571;28;20203;-71
2023/01/21 17:53:08;;;;;;;0.40;0.40;;;2.90;99.90;4.90;103126.00;;;;5014020;28;20294;-71
2023/01/21 17:56:05;;;;;;;2.23;2.17;;;2.90;99.90;5.10;103128.00;;;;4996153;28;20194;-73
2023/01/21 17:58:30;;;;;;;4.03;3.70;;;2.90;99.90;4.70;103089.00;;;;4988606;28;20195;-70
2023/01/21 18:01:04;;;;;;;1.17;1.17;;;2.60;99.90;5.10;103079.00;;;;5013373;28;20184;-70
2023/01/21 18:03:29;;;;;;;1.73;1.63;;;2.70;99.90;5.50;103111.00;;;;4995713;28;20221;-70
2023/01/21 18:05:56;;;;;;;2.03;1.93;;;2.80;99.90;5.30;103115.00;;;;5007133;28;20188;-70
2023/01/21 18:08:21;;;;;;;2.40;1.80;;;2.90;99.90;5.00;103105.00;;;;4995437;28;20198;-71
2023/01/21 18:10:50;;;;;;;7.67;7.27;;;2.80;99.90;5.30;103120.00;;;;5013429;28;20184;-70
2023/01/21 18:13:19;;;;;;;2.00;1.90;;;2.80;99.90;5.40;103128.00;;;;4995978;28;20294;-70
2023/01/21 18:15:50;;;;;;;4.57;2.87;;;2.90;99.90;5.50;103129.00;;;;5002754;28;20670;-70
2023/01/21 18:18:28;;;;;;;3.03;2.83;;;2.90;99.90;5.10;103127.00;;;;5012228;28;20270;-70
2023/01/21 18:20:54;;;;;;;5.30;4.77;;;2.80;99.90;5.60;103115.00;;;;5006455;28;20202;-70
2023/01/21 18:23:20;;;;;;;5.93;3.20;;;2.90;99.90;5.30;103128.00;;;;5001385;28;20198;-70
2023/01/21 18:25:51;;;;;;;0.40;0.40;;;2.80;99.90;4.50;103112.00;;;;5012087;28;20187;-70
2023/01/21 18:28:45;;;;;;;2.53;2.37;;;2.60;99.90;4.20;103115.00;;;;4994446;28;20206;-70
2023/01/21 18:31:39;;;;;;;0.40;0.40;;;2.40;99.90;4.90;103123.00;;;;5011563;28;20277;-70
2023/01/21 18:34:13;;;;;;;1.80;1.57;;;2.50;99.90;4.70;103119.00;;;;5019056;28;20647;-71
2023/01/21 18:36:42;;;;;;;3.03;2.93;;;2.50;99.90;4.50;103112.00;;;;4999204;28;20183;-70
2023/01/21 18:39:16;;;;;;;2.40;2.27;;;2.30;99.90;4.60;103083.00;;;;5007795;28;20650;-70
2023/01/21 18:42:34;;;;;;;4.00;1.00;;;2.30;99.90;4.70;103116.00;;;;4989103;28;20188;-70
2023/01/21 18:45:00;;;;;;;2.20;1.90;;;2.20;99.90;4.60;103113.00;;;;5004452;28;20195;-70
2023/01/21 18:48:08;;;;;;;2.23;2.13;;;2.40;99.90;4.30;103070.00;;;;5012063;28;20183;-71
2023/01/21 18:50:34;;;;;;;5.33;4.83;;;2.40;99.90;4.70;103108.00;;;;5002655;28;20187;-71
2023/01/21 18:53:00;;;;;;;0.70;0.70;;;2.40;99.90;4.90;103119.00;;;;5013211;28;20221;-71
2023/01/21 18:56:08;;;;;;;3.30;3.10;;;2.40;99.90;5.00;103121.00;;;;5008662;28;20187;-71
2023/01/21 18:58:36;;;;;;;1.13;1.13;;;2.60;99.90;5.20;103125.00;;;;5033873;28;20260;-71
2023/01/21 19:01:02;;;;;;;3.07;2.87;;;2.70;99.90;4.10;103122.00;;;;5014495;28;20237;-70
2023/01/21 19:03:29;;;;;;;1.50;1.40;;;2.30;99.90;4.50;103115.00;;;;5017002;28;20557;-71
2023/01/21 19:05:55;;;;;;;5.60;3.40;;;2.20;99.90;4.30;103119.00;;;;5002173;28;20562;-71
2023/01/21 19:08:29;;;;;;;1.33;1.20;;;2.30;99.90;4.30;103097.00;;;;5015577;28;20187;-71
2023/01/21 19:10:55;;;;;;;0.50;0.50;;;2.10;99.90;4.50;103112.00;;;;4998620;28;20179;-71
2023/01/21 19:13:21;;;;;;;1.83;1.77;;;2.20;99.90;4.20;103113.00;;;;5016818;28;20674;-71
2023/01/21 19:16:30;;;;;;;2.70;2.50;;;2.10;99.90;3.80;103095.00;;;;5015679;28;20241;-71
2023/01/21 19:18:56;;;;;;;0.40;0.40;;;2.00;99.90;4.20;103111.00;;;;5010556;28;20282;-70
2023/01/21 19:21:29;;;;;;;2.60;2.50;;;2.00;99.90;4.90;103077.00;;;;5014870;28;20547;-70
2023/01/21 19:23:55;;;;;;;2.23;2.13;;;2.30;99.90;4.70;103117.00;;;;5001064;28;20186;-70
2023/01/21 19:26:22;;;;;;;1.13;1.13;;;2.30;99.90;5.00;103099.00;;;;5014995;28;20623;-70
2023/01/21 19:28:48;;;;;;;2.13;2.03;;;2.40;99.90;3.90;103115.00;;;;4999050;28;20265;-70
2023/01/21 19:31:16;;;;;;;3.03;2.13;;;2.30;99.90;4.40;103122.00;;;;5014831;28;20623;-70
2023/01/21 19:33:44;;;;;;;5.80;4.13;;;2.20;99.90;4.70;103116.00;;;;5014922;28;20195;-70
2023/01/21 19:36:16;;;;;;;5.07;3.90;;;2.30;99.90;5.10;103131.00;;;;5006326;28;20175;-70
2023/01/21 19:39:03;;;;;;;1.17;1.17;;;2.40;99.90;4.90;103138.00;;;;5013017;28;20187;-70
2023/01/21 19:41:29;;;;;;;3.63;3.40;;;2.40;99.90;4.60;103138.00;;;;4999093;28;20194;-71
2023/01/21 19:43:55;;;;;;;0.50;0.50;;;2.40;99.90;4.50;103121.00;;;;5021130;28;20509;-70
2023/01/21 19:46:27;;;;;;;1.03;1.00;;;2.40;99.90;3.70;103119.00;;;;5015893;28;20643;-71
2023/01/21 19:48:58;;;;;;;8.17;3.20;;;2.10;99.90;4.50;103087.00;;;;5014827;28;20198;-71
2023/01/21 19:51:24;;;;;;;0.60;0.60;;;2.20;99.90;4.30;103117.00;;;;5014385;28;20191;-71
2023/01/21 19:53:50;;;;;;;1.73;1.63;;;2.10;99.90;4.80;103126.00;;;;5014755;28;20180;-72
2023/01/21 19:56:22;;;;;;;0.93;0.80;;;2.30;99.90;4.70;103129.00;;;;5014772;28;20600;-71
2023/01/21 19:58:52;;;;;;;0.90;0.90;;;2.50;99.90;4.40;103118.00;;;;4997569;28;20198;-71
2023/01/21 20:01:20;;;;;;;0.70;0.70;;;2.30;99.90;4.90;103128.00;;;;4996774;28;20196;-71
2023/01/21 20:03:46;;;;;;;0.90;0.90;;;2.20;99.90;4.30;103117.00;;;;4998152;28;20187;-71
2023/01/21 20:06:15;;;;;;;3.63;3.33;;;2.10;99.90;4.60;103125.00;;;;5012821;28;20183;-70
2023/01/21 20:08:43;;;;;;;4.40;4.00;;;2.30;99.90;4.50;103121.00;;;;5014184;28;20191;-70